sensor_id;sensor_type;location;lat;lon;timestamp;P1;durP1;ratioP1;P2;durP2;ratioP2
34836;SDS011;21053;50.848;4.652;2022-11-13T09:19:49;18.58;;;11.15;;
34836;SDS011;21053;50.848;4.652;2022-11-13T09:22:15;21.63;;;11.00;;
34836;SDS011;21053;50.848;4.652;2022-11-13T09:24:41;21.58;;;12.05;;
34836;SDS011;21053;50.848;4.652;2022-11-13T09:27:07;24.50;;;13.30;;
34836;SDS011;21053;50.848;4.652;2022-11-13T09:29:33;24.55;;;11.60;;
34836;SDS011;21053;50.848;4.652;2022-11-13T09:31:59;19.13;;;11.75;;
34836;SDS011;21053;50.848;4.652;2022-11-13T09:34:26;22.05;;;12.52;;
34836;SDS011;21053;50.848;4.652;2022-11-13T09:36:53;23.35;;;11.85;;
34836;SDS011;21053;50.848;4.652;2022-11-13T09:39:18;27.63;;;12.65;;
34836;SDS011;21053;50.848;4.652;2022-11-13T09:41:47;24.90;;;12.73;;
34836;SDS011;21053;50.848;4.652;2022-11-13T09:47:08;22.90;;;12.75;;
34836;SDS011;21053;50.848;4.652;2022-11-13T09:49:45;21.17;;;12.48;;
34836;SDS011;21053;50.848;4.652;2022-11-13T09:52:32;26.80;;;14.13;;
34836;SDS011;21053;50.848;4.652;2022-11-13T09:54:59;24.13;;;13.15;;
34836;SDS011;21053;50.848;4.652;2022-11-13T09:57:31;21.08;;;12.38;;
34836;SDS011;21053;50.848;4.652;2022-11-13T10:02:42;21.88;;;12.90;;
34836;SDS011;21053;50.848;4.652;2022-11-13T10:08:53;25.75;;;12.82;;
34836;SDS011;21053;50.848;4.652;2022-11-13T10:11:32;20.65;;;11.82;;
34836;SDS011;21053;50.848;4.652;2022-11-13T10:17:17;26.98;;;13.00;;
34836;SDS011;21053;50.848;4.652;2022-11-13T10:20:15;18.27;;;11.77;;
34836;SDS011;21053;50.848;4.652;2022-11-13T10:22:48;23.85;;;12.55;;
34836;SDS011;21053;50.848;4.652;2022-11-13T10:25:16;23.17;;;13.20;;
34836;SDS011;21053;50.848;4.652;2022-11-13T10:27:55;19.08;;;12.18;;
34836;SDS011;21053;50.848;4.652;2022-11-13T10:30:22;20.38;;;12.40;;
34836;SDS011;21053;50.848;4.652;2022-11-13T10:32:49;20.98;;;12.75;;
34836;SDS011;21053;50.848;4.652;2022-11-13T10:37:59;24.15;;;13.23;;
34836;SDS011;21053;50.848;4.652;2022-11-13T10:40:45;30.67;;;12.70;;
34836;SDS011;21053;50.848;4.652;2022-11-13T10:45:55;19.38;;;11.30;;
34836;SDS011;21053;50.848;4.652;2022-11-13T10:48:26;19.75;;;12.02;;
34836;SDS011;21053;50.848;4.652;2022-11-13T10:50:58;17.00;;;11.20;;
34836;SDS011;21053;50.848;4.652;2022-11-13T10:53:27;20.42;;;11.13;;
34836;SDS011;21053;50.848;4.652;2022-11-13T10:58:58;14.80;;;8.70;;
34836;SDS011;21053;50.848;4.652;2022-11-13T11:01:26;15.93;;;7.68;;
34836;SDS011;21053;50.848;4.652;2022-11-13T11:03:52;11.68;;;6.70;;
34836;SDS011;21053;50.848;4.652;2022-11-13T11:06:18;18.60;;;6.78;;
34836;SDS011;21053;50.848;4.652;2022-11-13T11:08:46;12.20;;;6.35;;
34836;SDS011;21053;50.848;4.652;2022-11-13T11:11:13;10.60;;;5.78;;
34836;SDS011;21053;50.848;4.652;2022-11-13T11:14:12;11.60;;;5.90;;
34836;SDS011;21053;50.848;4.652;2022-11-13T11:16:46;9.70;;;5.55;;
34836;SDS011;21053;50.848;4.652;2022-11-13T11:19:15;8.07;;;5.28;;
34836;SDS011;21053;50.848;4.652;2022-11-13T11:21:46;9.77;;;5.07;;
34836;SDS011;21053;50.848;4.652;2022-11-13T11:27:04;7.93;;;4.60;;
34836;SDS011;21053;50.848;4.652;2022-11-13T11:29:40;8.63;;;4.80;;
34836;SDS011;21053;50.848;4.652;2022-11-13T11:32:28;8.00;;;4.78;;
34836;SDS011;21053;50.848;4.652;2022-11-13T11:35:18;9.25;;;5.53;;
34836;SDS011;21053;50.848;4.652;2022-11-13T11:37:54;9.48;;;4.47;;
34836;SDS011;21053;50.848;4.652;2022-11-13T11:40:41;7.40;;;4.72;;
34836;SDS011;21053;50.848;4.652;2022-11-13T11:43:20;5.82;;;4.30;;
34836;SDS011;21053;50.848;4.652;2022-11-13T11:45:53;6.35;;;4.07;;
34836;SDS011;21053;50.848;4.652;2022-11-13T11:48:24;6.97;;;4.43;;
34836;SDS011;21053;50.848;4.652;2022-11-13T11:53:49;5.60;;;3.78;;
34836;SDS011;21053;50.848;4.652;2022-11-13T12:24:15;6.53;;;3.10;;
34836;SDS011;21053;50.848;4.652;2022-11-13T12:32:47;3.78;;;2.72;;
34836;SDS011;21053;50.848;4.652;2022-11-13T12:41:14;4.45;;;2.78;;
34836;SDS011;21053;50.848;4.652;2022-11-13T12:44:05;4.97;;;3.10;;
34836;SDS011;21053;50.848;4.652;2022-11-13T12:46:49;3.97;;;3.03;;
34836;SDS011;21053;50.848;4.652;2022-11-13T12:51:56;5.85;;;3.08;;
34836;SDS011;21053;50.848;4.652;2022-11-13T12:54:27;4.83;;;2.53;;
34836;SDS011;21053;50.848;4.652;2022-11-13T12:59:48;4.28;;;2.22;;
34836;SDS011;21053;50.848;4.652;2022-11-13T13:05:37;3.70;;;2.33;;
34836;SDS011;21053;50.848;4.652;2022-11-13T13:17:05;2.88;;;2.20;;
34836;SDS011;21053;50.848;4.652;2022-11-13T13:19:40;5.00;;;2.33;;
34836;SDS011;21053;50.848;4.652;2022-11-13T13:22:09;3.38;;;2.35;;
34836;SDS011;21053;50.848;4.652;2022-11-13T13:24:56;6.60;;;3.05;;
34836;SDS011;21053;50.848;4.652;2022-11-13T13:27:42;3.17;;;2.40;;
34836;SDS011;21053;50.848;4.652;2022-11-13T13:30:18;4.35;;;2.65;;
34836;SDS011;21053;50.848;4.652;2022-11-13T13:32:51;3.10;;;2.40;;
34836;SDS011;21053;50.848;4.652;2022-11-13T13:38:14;6.55;;;3.08;;
34836;SDS011;21053;50.848;4.652;2022-11-13T13:48:42;4.95;;;3.22;;
34836;SDS011;21053;50.848;4.652;2022-11-13T13:51:44;5.32;;;3.33;;
34836;SDS011;21053;50.848;4.652;2022-11-13T13:54:32;6.65;;;3.72;;
34836;SDS011;21053;50.848;4.652;2022-11-13T13:56:59;6.38;;;3.55;;
34836;SDS011;21053;50.848;4.652;2022-11-13T14:01:58;5.72;;;3.70;;
34836;SDS011;21053;50.848;4.652;2022-11-13T14:04:26;8.60;;;3.35;;
34836;SDS011;21053;50.848;4.652;2022-11-13T14:06:56;7.13;;;3.78;;
34836;SDS011;21053;50.848;4.652;2022-11-13T14:09:24;6.15;;;3.60;;
34836;SDS011;21053;50.848;4.652;2022-11-13T14:12:16;5.40;;;3.72;;
34836;SDS011;21053;50.848;4.652;2022-11-13T14:14:44;6.75;;;3.78;;
34836;SDS011;21053;50.848;4.652;2022-11-13T14:17:10;9.80;;;3.72;;
34836;SDS011;21053;50.848;4.652;2022-11-13T14:19:37;8.32;;;4.25;;
34836;SDS011;21053;50.848;4.652;2022-11-13T14:22:04;7.07;;;3.78;;
34836;SDS011;21053;50.848;4.652;2022-11-13T14:24:41;7.93;;;4.40;;
34836;SDS011;21053;50.848;4.652;2022-11-13T14:27:14;6.47;;;4.13;;
34836;SDS011;21053;50.848;4.652;2022-11-13T14:29:52;8.00;;;4.15;;
34836;SDS011;21053;50.848;4.652;2022-11-13T14:32:21;8.07;;;4.40;;
34836;SDS011;21053;50.848;4.652;2022-11-13T14:34:54;6.60;;;4.00;;
34836;SDS011;21053;50.848;4.652;2022-11-13T14:40:02;8.20;;;4.15;;
34836;SDS011;21053;50.848;4.652;2022-11-13T14:42:33;8.73;;;4.20;;
34836;SDS011;21053;50.848;4.652;2022-11-13T14:45:14;8.35;;;5.00;;
34836;SDS011;21053;50.848;4.652;2022-11-13T14:47:43;7.45;;;4.43;;
34836;SDS011;21053;50.848;4.652;2022-11-13T14:50:20;7.35;;;4.60;;
34836;SDS011;21053;50.848;4.652;2022-11-13T14:52:55;9.02;;;4.57;;
34836;SDS011;21053;50.848;4.652;2022-11-13T14:55:33;9.30;;;4.45;;
34836;SDS011;21053;50.848;4.652;2022-11-13T14:58:02;7.75;;;4.40;;
34836;SDS011;21053;50.848;4.652;2022-11-13T15:03:01;10.02;;;5.03;;
34836;SDS011;21053;50.848;4.652;2022-11-13T15:05:30;5.60;;;4.05;;
34836;SDS011;21053;50.848;4.652;2022-11-13T15:07:57;5.90;;;3.55;;
34836;SDS011;21053;50.848;4.652;2022-11-13T15:10:25;6.35;;;3.30;;
34836;SDS011;21053;50.848;4.652;2022-11-13T15:12:53;11.07;;;4.07;;
34836;SDS011;21053;50.848;4.652;2022-11-13T15:15:24;8.18;;;3.67;;
34836;SDS011;21053;50.848;4.652;2022-11-13T15:17:52;9.15;;;3.47;;
34836;SDS011;21053;50.848;4.652;2022-11-13T15:20:21;4.85;;;3.30;;
34836;SDS011;21053;50.848;4.652;2022-11-13T15:22:51;5.68;;;3.30;;
34836;SDS011;21053;50.848;4.652;2022-11-13T15:25:19;7.45;;;3.70;;
34836;SDS011;21053;50.848;4.652;2022-11-13T15:27:46;6.13;;;3.40;;
34836;SDS011;21053;50.848;4.652;2022-11-13T15:30:12;5.88;;;3.80;;
34836;SDS011;21053;50.848;4.652;2022-11-13T15:32:41;8.25;;;3.83;;
34836;SDS011;21053;50.848;4.652;2022-11-13T15:35:12;7.38;;;3.58;;
34836;SDS011;21053;50.848;4.652;2022-11-13T15:37:40;5.80;;;3.40;;
34836;SDS011;21053;50.848;4.652;2022-11-13T15:40:07;8.70;;;4.30;;
34836;SDS011;21053;50.848;4.652;2022-11-13T15:42:33;7.90;;;4.18;;
34836;SDS011;21053;50.848;4.652;2022-11-13T15:45:00;8.00;;;4.50;;
34836;SDS011;21053;50.848;4.652;2022-11-13T15:47:30;6.68;;;4.25;;
34836;SDS011;21053;50.848;4.652;2022-11-13T15:49:57;6.38;;;3.78;;
34836;SDS011;21053;50.848;4.652;2022-11-13T15:52:23;13.20;;;4.45;;
34836;SDS011;21053;50.848;4.652;2022-11-13T15:54:50;10.32;;;4.57;;
34836;SDS011;21053;50.848;4.652;2022-11-13T15:57:18;10.18;;;4.45;;
34836;SDS011;21053;50.848;4.652;2022-11-13T15:59:48;8.93;;;3.97;;
34836;SDS011;21053;50.848;4.652;2022-11-13T16:02:13;8.23;;;4.05;;
34836;SDS011;21053;50.848;4.652;2022-11-13T16:04:40;17.08;;;4.45;;
34836;SDS011;21053;50.848;4.652;2022-11-13T16:07:10;8.95;;;4.50;;
34836;SDS011;21053;50.848;4.652;2022-11-13T16:09:53;23.65;;;5.95;;
34836;SDS011;21053;50.848;4.652;2022-11-13T16:12:19;15.23;;;5.72;;
34836;SDS011;21053;50.848;4.652;2022-11-13T16:14:44;10.52;;;5.03;;
34836;SDS011;21053;50.848;4.652;2022-11-13T16:17:18;12.27;;;5.82;;
34836;SDS011;21053;50.848;4.652;2022-11-13T16:19:48;11.85;;;5.50;;
34836;SDS011;21053;50.848;4.652;2022-11-13T16:22:22;13.63;;;5.72;;
34836;SDS011;21053;50.848;4.652;2022-11-13T16:24:49;8.73;;;5.13;;
34836;SDS011;21053;50.848;4.652;2022-11-13T16:27:26;9.40;;;5.45;;
34836;SDS011;21053;50.848;4.652;2022-11-13T16:29:54;12.18;;;5.57;;
34836;SDS011;21053;50.848;4.652;2022-11-13T16:32:20;13.80;;;6.05;;
34836;SDS011;21053;50.848;4.652;2022-11-13T16:34:46;10.60;;;5.68;;
34836;SDS011;21053;50.848;4.652;2022-11-13T16:37:13;10.50;;;5.47;;
34836;SDS011;21053;50.848;4.652;2022-11-13T16:39:40;7.88;;;4.35;;
34836;SDS011;21053;50.848;4.652;2022-11-13T16:42:07;10.00;;;4.18;;
34836;SDS011;21053;50.848;4.652;2022-11-13T16:44:33;7.53;;;4.63;;
34836;SDS011;21053;50.848;4.652;2022-11-13T16:47:00;11.90;;;5.15;;
34836;SDS011;21053;50.848;4.652;2022-11-13T16:49:26;16.55;;;5.45;;
34836;SDS011;21053;50.848;4.652;2022-11-13T16:51:52;12.82;;;5.72;;
34836;SDS011;21053;50.848;4.652;2022-11-13T16:54:18;13.00;;;6.32;;
34836;SDS011;21053;50.848;4.652;2022-11-13T16:56:47;12.05;;;6.25;;
34836;SDS011;21053;50.848;4.652;2022-11-13T17:01:42;9.45;;;5.57;;
34836;SDS011;21053;50.848;4.652;2022-11-13T17:04:09;13.32;;;6.35;;
34836;SDS011;21053;50.848;4.652;2022-11-13T17:06:39;13.82;;;6.65;;
34836;SDS011;21053;50.848;4.652;2022-11-13T17:09:04;11.73;;;6.50;;
34836;SDS011;21053;50.848;4.652;2022-11-13T17:11:30;14.68;;;7.00;;
34836;SDS011;21053;50.848;4.652;2022-11-13T17:13:58;15.82;;;7.85;;
34836;SDS011;21053;50.848;4.652;2022-11-13T17:16:26;29.58;;;11.90;;
34836;SDS011;21053;50.848;4.652;2022-11-13T17:18:52;16.67;;;8.50;;
34836;SDS011;21053;50.848;4.652;2022-11-13T17:21:20;14.35;;;7.15;;
34836;SDS011;21053;50.848;4.652;2022-11-13T17:23:47;10.63;;;5.75;;
34836;SDS011;21053;50.848;4.652;2022-11-13T17:26:19;15.05;;;5.53;;
34836;SDS011;21053;50.848;4.652;2022-11-13T17:28:44;10.35;;;5.63;;
34836;SDS011;21053;50.848;4.652;2022-11-13T17:31:13;12.13;;;6.03;;
34836;SDS011;21053;50.848;4.652;2022-11-13T17:33:40;12.50;;;5.07;;
34836;SDS011;21053;50.848;4.652;2022-11-13T17:36:07;12.70;;;5.75;;
34836;SDS011;21053;50.848;4.652;2022-11-13T17:38:33;11.57;;;5.53;;
34836;SDS011;21053;50.848;4.652;2022-11-13T17:41:04;13.50;;;5.88;;
34836;SDS011;21053;50.848;4.652;2022-11-13T17:43:35;13.32;;;5.93;;
34836;SDS011;21053;50.848;4.652;2022-11-13T17:46:05;12.63;;;6.20;;
34836;SDS011;21053;50.848;4.652;2022-11-13T17:48:36;15.13;;;7.03;;
34836;SDS011;21053;50.848;4.652;2022-11-13T17:51:03;14.32;;;6.88;;
34836;SDS011;21053;50.848;4.652;2022-11-13T17:53:34;21.08;;;7.30;;
34836;SDS011;21053;50.848;4.652;2022-11-13T17:56:03;11.57;;;6.00;;
34836;SDS011;21053;50.848;4.652;2022-11-13T17:58:35;16.05;;;7.18;;
34836;SDS011;21053;50.848;4.652;2022-11-13T18:01:10;12.75;;;7.63;;
34836;SDS011;21053;50.848;4.652;2022-11-13T18:03:45;10.43;;;6.65;;
34836;SDS011;21053;50.848;4.652;2022-11-13T18:06:16;16.17;;;8.27;;
34836;SDS011;21053;50.848;4.652;2022-11-13T18:08:44;16.58;;;7.55;;
34836;SDS011;21053;50.848;4.652;2022-11-13T18:11:24;13.63;;;7.65;;
34836;SDS011;21053;50.848;4.652;2022-11-13T18:13:52;16.13;;;7.40;;
34836;SDS011;21053;50.848;4.652;2022-11-13T18:16:19;12.55;;;7.28;;
34836;SDS011;21053;50.848;4.652;2022-11-13T18:18:52;17.63;;;7.07;;
34836;SDS011;21053;50.848;4.652;2022-11-13T18:21:23;14.15;;;7.40;;
34836;SDS011;21053;50.848;4.652;2022-11-13T18:24:08;15.60;;;6.82;;
34836;SDS011;21053;50.848;4.652;2022-11-13T18:26:43;12.55;;;7.30;;
34836;SDS011;21053;50.848;4.652;2022-11-13T18:29:09;16.40;;;6.90;;
34836;SDS011;21053;50.848;4.652;2022-11-13T18:31:38;16.02;;;8.07;;
34836;SDS011;21053;50.848;4.652;2022-11-13T18:34:04;16.85;;;9.02;;
34836;SDS011;21053;50.848;4.652;2022-11-13T18:36:30;18.80;;;9.20;;
34836;SDS011;21053;50.848;4.652;2022-11-13T18:38:59;15.90;;;8.90;;
34836;SDS011;21053;50.848;4.652;2022-11-13T18:41:28;17.00;;;8.95;;
34836;SDS011;21053;50.848;4.652;2022-11-13T18:43:55;26.00;;;13.05;;
34836;SDS011;21053;50.848;4.652;2022-11-13T18:46:20;33.50;;;12.02;;
34836;SDS011;21053;50.848;4.652;2022-11-13T18:48:47;23.02;;;10.68;;
34836;SDS011;21053;50.848;4.652;2022-11-13T18:51:14;20.52;;;11.00;;
34836;SDS011;21053;50.848;4.652;2022-11-13T18:53:44;21.67;;;10.85;;
34836;SDS011;21053;50.848;4.652;2022-11-13T18:56:13;23.67;;;9.65;;
34836;SDS011;21053;50.848;4.652;2022-11-13T18:58:42;17.42;;;9.73;;
34836;SDS011;21053;50.848;4.652;2022-11-13T19:01:10;17.52;;;9.73;;
34836;SDS011;21053;50.848;4.652;2022-11-13T19:03:38;18.83;;;9.50;;
34836;SDS011;21053;50.848;4.652;2022-11-13T19:06:10;18.02;;;9.95;;
34836;SDS011;21053;50.848;4.652;2022-11-13T19:08:38;25.25;;;10.43;;
34836;SDS011;21053;50.848;4.652;2022-11-13T19:11:05;24.77;;;11.00;;
34836;SDS011;21053;50.848;4.652;2022-11-13T19:13:34;18.58;;;10.13;;
34836;SDS011;21053;50.848;4.652;2022-11-13T19:16:07;16.42;;;10.48;;
34836;SDS011;21053;50.848;4.652;2022-11-13T19:18:39;15.68;;;8.95;;
34836;SDS011;21053;50.848;4.652;2022-11-13T19:21:07;15.75;;;7.93;;
34836;SDS011;21053;50.848;4.652;2022-11-13T19:23:36;15.88;;;7.13;;
34836;SDS011;21053;50.848;4.652;2022-11-13T19:26:02;18.48;;;9.40;;
34836;SDS011;21053;50.848;4.652;2022-11-13T19:28:29;21.73;;;9.68;;
34836;SDS011;21053;50.848;4.652;2022-11-13T19:30:56;20.15;;;10.13;;
34836;SDS011;21053;50.848;4.652;2022-11-13T19:33:23;22.05;;;10.75;;
34836;SDS011;21053;50.848;4.652;2022-11-13T19:35:52;16.52;;;9.52;;
34836;SDS011;21053;50.848;4.652;2022-11-13T19:38:22;23.02;;;9.35;;
34836;SDS011;21053;50.848;4.652;2022-11-13T19:40:50;21.60;;;9.43;;
34836;SDS011;21053;50.848;4.652;2022-11-13T19:43:16;20.33;;;9.90;;
34836;SDS011;21053;50.848;4.652;2022-11-13T19:45:43;20.95;;;10.60;;
34836;SDS011;21053;50.848;4.652;2022-11-13T19:48:10;18.75;;;10.43;;
34836;SDS011;21053;50.848;4.652;2022-11-13T19:50:35;17.45;;;10.38;;
34836;SDS011;21053;50.848;4.652;2022-11-13T19:53:01;17.52;;;10.07;;
34836;SDS011;21053;50.848;4.652;2022-11-13T19:55:27;20.92;;;10.35;;
34836;SDS011;21053;50.848;4.652;2022-11-13T19:57:54;23.60;;;10.50;;
34836;SDS011;21053;50.848;4.652;2022-11-13T20:00:20;27.52;;;13.23;;
34836;SDS011;21053;50.848;4.652;2022-11-13T20:02:45;24.40;;;13.23;;
34836;SDS011;21053;50.848;4.652;2022-11-13T20:05:12;25.83;;;11.82;;
34836;SDS011;21053;50.848;4.652;2022-11-13T20:07:39;28.25;;;12.77;;
34836;SDS011;21053;50.848;4.652;2022-11-13T20:10:11;19.65;;;9.35;;
34836;SDS011;21053;50.848;4.652;2022-11-13T20:12:38;19.67;;;10.00;;
34836;SDS011;21053;50.848;4.652;2022-11-13T20:15:04;21.63;;;9.52;;
34836;SDS011;21053;50.848;4.652;2022-11-13T20:17:30;20.27;;;10.35;;
34836;SDS011;21053;50.848;4.652;2022-11-13T20:19:55;23.83;;;9.93;;
34836;SDS011;21053;50.848;4.652;2022-11-13T20:22:21;22.95;;;10.88;;
34836;SDS011;21053;50.848;4.652;2022-11-13T20:24:47;17.55;;;9.90;;
34836;SDS011;21053;50.848;4.652;2022-11-13T20:27:13;23.17;;;10.70;;
34836;SDS011;21053;50.848;4.652;2022-11-13T20:29:40;25.05;;;11.45;;
34836;SDS011;21053;50.848;4.652;2022-11-13T20:32:06;20.30;;;11.27;;
34836;SDS011;21053;50.848;4.652;2022-11-13T20:34:33;22.67;;;11.70;;
34836;SDS011;21053;50.848;4.652;2022-11-13T20:37:00;23.13;;;11.85;;
34836;SDS011;21053;50.848;4.652;2022-11-13T20:40:26;21.85;;;12.20;;
34836;SDS011;21053;50.848;4.652;2022-11-13T20:42:52;23.23;;;11.80;;
34836;SDS011;21053;50.848;4.652;2022-11-13T20:45:19;19.52;;;11.32;;
34836;SDS011;21053;50.848;4.652;2022-11-13T20:47:45;22.92;;;12.88;;
34836;SDS011;21053;50.848;4.652;2022-11-13T20:50:10;31.40;;;13.68;;
34836;SDS011;21053;50.848;4.652;2022-11-13T20:52:37;21.52;;;11.93;;
34836;SDS011;21053;50.848;4.652;2022-11-13T20:55:03;22.45;;;12.45;;
34836;SDS011;21053;50.848;4.652;2022-11-13T20:57:29;29.60;;;11.98;;
34836;SDS011;21053;50.848;4.652;2022-11-13T20:59:55;21.65;;;11.65;;
34836;SDS011;21053;50.848;4.652;2022-11-13T21:02:23;21.63;;;10.90;;
34836;SDS011;21053;50.848;4.652;2022-11-13T21:04:49;24.42;;;11.93;;
34836;SDS011;21053;50.848;4.652;2022-11-13T21:07:15;23.13;;;12.63;;
34836;SDS011;21053;50.848;4.652;2022-11-13T21:09:41;24.45;;;12.73;;
34836;SDS011;21053;50.848;4.652;2022-11-13T21:12:06;23.85;;;11.48;;
34836;SDS011;21053;50.848;4.652;2022-11-13T21:14:33;39.90;;;17.38;;
34836;SDS011;21053;50.848;4.652;2022-11-13T21:16:59;29.58;;;15.20;;
34836;SDS011;21053;50.848;4.652;2022-11-13T21:19:26;29.30;;;14.45;;
34836;SDS011;21053;50.848;4.652;2022-11-13T21:21:52;38.20;;;15.65;;
34836;SDS011;21053;50.848;4.652;2022-11-13T21:24:17;29.52;;;14.43;;
34836;SDS011;21053;50.848;4.652;2022-11-13T21:26:43;34.28;;;15.90;;
34836;SDS011;21053;50.848;4.652;2022-11-13T21:29:11;26.10;;;13.95;;
34836;SDS011;21053;50.848;4.652;2022-11-13T21:31:38;24.92;;;12.80;;
34836;SDS011;21053;50.848;4.652;2022-11-13T21:34:05;29.15;;;13.20;;
34836;SDS011;21053;50.848;4.652;2022-11-13T21:36:33;22.70;;;12.55;;
34836;SDS011;21053;50.848;4.652;2022-11-13T21:38:59;26.73;;;13.98;;
34836;SDS011;21053;50.848;4.652;2022-11-13T21:41:25;31.67;;;14.02;;
34836;SDS011;21053;50.848;4.652;2022-11-13T21:46:22;33.47;;;15.23;;
34836;SDS011;21053;50.848;4.652;2022-11-13T21:48:53;28.85;;;15.60;;
34836;SDS011;21053;50.848;4.652;2022-11-13T21:51:24;28.60;;;14.63;;
34836;SDS011;21053;50.848;4.652;2022-11-13T21:53:50;26.20;;;12.07;;
34836;SDS011;21053;50.848;4.652;2022-11-13T21:56:16;25.48;;;13.63;;
34836;SDS011;21053;50.848;4.652;2022-11-13T21:58:42;30.45;;;14.88;;
34836;SDS011;21053;50.848;4.652;2022-11-13T22:03:38;33.85;;;16.45;;
34836;SDS011;21053;50.848;4.652;2022-11-13T22:06:12;27.20;;;14.93;;
34836;SDS011;21053;50.848;4.652;2022-11-13T22:08:57;33.05;;;15.23;;
34836;SDS011;21053;50.848;4.652;2022-11-13T22:11:25;30.88;;;14.43;;
34836;SDS011;21053;50.848;4.652;2022-11-13T22:13:55;35.60;;;14.35;;
34836;SDS011;21053;50.848;4.652;2022-11-13T22:18:53;46.28;;;20.45;;
34836;SDS011;21053;50.848;4.652;2022-11-13T22:21:20;66.85;;;28.60;;
34836;SDS011;21053;50.848;4.652;2022-11-13T22:23:47;66.75;;;27.13;;
34836;SDS011;21053;50.848;4.652;2022-11-13T22:26:14;76.45;;;27.65;;
34836;SDS011;21053;50.848;4.652;2022-11-13T22:28:41;57.67;;;23.52;;
34836;SDS011;21053;50.848;4.652;2022-11-13T22:31:12;70.38;;;27.27;;
34836;SDS011;21053;50.848;4.652;2022-11-13T22:33:39;68.93;;;26.08;;
34836;SDS011;21053;50.848;4.652;2022-11-13T22:36:06;75.43;;;28.13;;
34836;SDS011;21053;50.848;4.652;2022-11-13T22:38:34;68.97;;;24.00;;
34836;SDS011;21053;50.848;4.652;2022-11-13T22:41:08;47.05;;;18.02;;
34836;SDS011;21053;50.848;4.652;2022-11-13T22:43:37;47.40;;;15.90;;
34836;SDS011;21053;50.848;4.652;2022-11-13T22:46:05;35.50;;;16.85;;
34836;SDS011;21053;50.848;4.652;2022-11-13T22:48:33;57.10;;;20.58;;
34836;SDS011;21053;50.848;4.652;2022-11-13T22:51:10;41.92;;;18.90;;
34836;SDS011;21053;50.848;4.652;2022-11-13T22:53:40;43.70;;;19.70;;
34836;SDS011;21053;50.848;4.652;2022-11-13T22:56:11;48.50;;;22.63;;
34836;SDS011;21053;50.848;4.652;2022-11-13T22:58:37;49.00;;;23.25;;
34836;SDS011;21053;50.848;4.652;2022-11-13T23:01:15;46.97;;;22.40;;
34836;SDS011;21053;50.848;4.652;2022-11-13T23:03:43;49.92;;;22.48;;
34836;SDS011;21053;50.848;4.652;2022-11-13T23:06:11;44.92;;;19.55;;
34836;SDS011;21053;50.848;4.652;2022-11-13T23:08:37;38.53;;;19.05;;
34836;SDS011;21053;50.848;4.652;2022-11-13T23:11:08;34.35;;;17.30;;
34836;SDS011;21053;50.848;4.652;2022-11-13T23:13:38;34.35;;;15.75;;
34836;SDS011;21053;50.848;4.652;2022-11-13T23:16:05;31.90;;;16.45;;
34836;SDS011;21053;50.848;4.652;2022-11-13T23:18:31;36.17;;;16.65;;
34836;SDS011;21053;50.848;4.652;2022-11-13T23:20:57;33.15;;;16.23;;
34836;SDS011;21053;50.848;4.652;2022-11-13T23:23:23;30.73;;;14.90;;
34836;SDS011;21053;50.848;4.652;2022-11-13T23:25:48;29.58;;;15.25;;
34836;SDS011;21053;50.848;4.652;2022-11-13T23:28:15;33.72;;;16.08;;
34836;SDS011;21053;50.848;4.652;2022-11-13T23:30:42;29.80;;;15.38;;
34836;SDS011;21053;50.848;4.652;2022-11-13T23:33:10;33.20;;;15.45;;
34836;SDS011;21053;50.848;4.652;2022-11-13T23:35:35;29.00;;;14.95;;
34836;SDS011;21053;50.848;4.652;2022-11-13T23:38:01;34.05;;;14.32;;
34836;SDS011;21053;50.848;4.652;2022-11-13T23:40:26;34.97;;;14.73;;
34836;SDS011;21053;50.848;4.652;2022-11-13T23:42:52;29.63;;;15.48;;
34836;SDS011;21053;50.848;4.652;2022-11-13T23:45:21;30.15;;;15.25;;
34836;SDS011;21053;50.848;4.652;2022-11-13T23:47:48;30.83;;;14.85;;
34836;SDS011;21053;50.848;4.652;2022-11-13T23:50:14;26.55;;;14.88;;
34836;SDS011;21053;50.848;4.652;2022-11-13T23:52:40;26.55;;;14.48;;
34836;SDS011;21053;50.848;4.652;2022-11-13T23:55:06;25.65;;;14.38;;
34836;SDS011;21053;50.848;4.652;2022-11-13T23:57:32;31.98;;;14.70;;
